This is the latest recevied weather packets stored in our database for station/object VE6HFD-WX. If no packets are shown the sender has not sent any weather packets the latest 1 day(s).
| Time | Temp. | Humidity | Pressure | Rain* | Wind** | Luminosity | Snow |
|---|---|---|---|---|---|---|---|
| 1778049877 | -0.56° C | 63% | 1019.7 hPa | 0 mm | 1.34 m/s, 220° | - | - |
| 1778049547 | -0.56° C | 62% | 1019.8 hPa | 0 mm | 2.24 m/s, 220° | - | - |
| 1778049247 | -1.11° C | 62% | 1019.8 hPa | 0 mm | 2.24 m/s, 233° | - | - |
| 1778048917 | -1.11° C | 62% | 1019.8 hPa | 0 mm | 2.68 m/s, 232° | - | - |
| 1778048617 | -0.56° C | 63% | 1019.8 hPa | 0 mm | 2.24 m/s, 231° | - | - |
| 1778048317 | -0.56° C | 63% | 1019.8 hPa | 0 mm | 2.68 m/s, 216° | - | - |
| 1778047987 | -1.11° C | 64% | 1019.7 hPa | 0 mm | 2.68 m/s, 207° | - | - |
| 1778047687 | -1.11° C | 62% | 1019.7 hPa | 0 mm | 1.34 m/s, 202° | - | - |
| 1778047358 | -1.11° C | 64% | 1019.7 hPa | 0 mm | 1.34 m/s, 202° | - | - |
| 1778047028 | -1.11° C | 63% | 1019.7 hPa | 0 mm | 1.34 m/s, 202° | - | - |
| 1778046697 | -1.11° C | 63% | 1019.7 hPa | 0 mm | 0.89 m/s, 202° | - | - |
| 1778046368 | -1.11° C | 61% | 1019.7 hPa | 0 mm | 2.24 m/s, 208° | - | - |
| 1778046038 | 0° C | 57% | 1019.7 hPa | 0 mm | 0.89 m/s, 174° | - | - |
| 1778045737 | 1.11° C | 55% | 1019.8 hPa | 0 mm | 0.45 m/s, 174° | - | - |
| 1778045438 | 1.67° C | 53% | 1019.9 hPa | 0 mm | 0.45 m/s, 174° | - | - |
| 1778045108 | 1.67° C | 54% | 1020 hPa | 0 mm | 0.89 m/s, 174° | - | - |
| 1778044777 | 1.11° C | 56% | 1020 hPa | 0 mm | 0.89 m/s, 186° | - | - |
| 1778044448 | 0.56° C | 57% | 1020.1 hPa | 0 mm | 0.45 m/s, 186° | - | - |
| 1778044118 | 0.56° C | 56% | 1020.2 hPa | 0 mm | 0.45 m/s, 186° | - | - |
| 1778043788 | 0.56° C | 57% | 1020.2 hPa | 0 mm | 0.45 m/s, 186° | - | - |
| 1778043487 | 0.56° C | 59% | 1020.3 hPa | 0 mm | 0.45 m/s, 205° | - | - |
| 1778043158 | 1.11° C | 60% | 1020.3 hPa | 0 mm | 2.24 m/s, 206° | - | - |
| 1778042858 | 1.11° C | 59% | 1020.3 hPa | 0 mm | 0.89 m/s, 114° | - | - |
| 1778042558 | 1.11° C | 60% | 1020.3 hPa | 0 mm | 0.89 m/s, 114° | - | - |
| 1778042258 | 1.67° C | 57% | 1020.4 hPa | 0 mm | 0.89 m/s, 114° | - | - |
* Rain latest hour (hover to see other rain measurements)
** Current wind speed in m/s (hover to see current wind gust speed)